Time;durP1;ratioP1;P1;durP2;ratioP2;P2;SDS_P1;SDS_P2;PMS_P1;PMS_P2;Temp;Humidity;BMP_temperature;BMP_pressure;BME280_temperature;BME280_humidity;BME280_pressure;Samples;Min_cycle;Max_cycle;Signal;HPM_P1;HPM_P2
2023/06/24 00:02:47;;;;;;;0.70;0.70;;;;;;;;;;6273614;28;20088;-66
2023/06/24 00:05:49;;;;;;;0.90;0.80;;;;;;;;;;6296529;28;20036;-66
2023/06/24 00:08:49;;;;;;;1.33;0.95;;;;;;;;;;6283952;28;20016;-67
2023/06/24 00:11:49;;;;;;;0.80;0.70;;;;;;;;;;6282410;28;20056;-66
2023/06/24 00:14:50;;;;;;;2.00;0.70;;;;;;;;;;6280622;28;20279;-66
2023/06/24 00:17:51;;;;;;;2.50;0.82;;;;;;;;;;6279552;28;20438;-67
2023/06/24 00:20:51;;;;;;;2.28;0.90;;;;;;;;;;6276658;28;20539;-67
2023/06/24 00:23:51;;;;;;;;;;;;;;;;;;6273019;28;22875;-67
2023/06/24 00:26:52;;;;;;;1.30;0.70;;;;;;;;;;6278618;28;19994;-66
2023/06/24 00:29:52;;;;;;;;;;;;;;;;;;6279583;28;20119;-67
2023/06/24 00:32:53;;;;;;;0.95;0.90;;;;;;;;;;6272550;28;19917;-65
2023/06/24 00:35:54;;;;;;;0.90;0.90;;;;;;;;;;6276160;28;20020;-64
2023/06/24 00:38:55;;;;;;;0.95;0.90;;;;;;;;;;6272790;28;20275;-66
2023/06/24 00:41:55;;;;;;;2.63;1.15;;;;;;;;;;6275095;28;20036;-64
2023/06/24 00:44:56;;;;;;;1.00;1.00;;;;;;;;;;6275437;28;20103;-69
2023/06/24 00:47:58;;;;;;;1.45;1.25;;;;;;;;;;6276764;28;20020;-64
2023/06/24 00:51:01;;;;;;;3.00;1.10;;;;;;;;;;6268714;28;20037;-67
2023/06/24 00:54:01;;;;;;;1.13;1.13;;;;;;;;;;6279291;28;20029;-65
2023/06/24 00:57:02;;;;;;;0.93;0.90;;;;;;;;;;6274154;28;20044;-66
2023/06/24 01:00:05;;;;;;;1.65;1.00;;;;;;;;;;6278565;28;20167;-66
2023/06/24 01:03:06;;;;;;;1.38;1.27;;;;;;;;;;6273608;28;20020;-65
2023/06/24 01:06:08;;;;;;;1.27;1.02;;;;;;;;;;6277072;28;20031;-64
2023/06/24 01:09:08;;;;;;;2.50;1.10;;;;;;;;;;6276558;28;20028;-64
2023/06/24 01:12:08;;;;;;;1.10;1.00;;;;;;;;;;6280796;28;20016;-64
2023/06/24 01:15:09;;;;;;;1.30;1.20;;;;;;;;;;6277195;28;20028;-67
2023/06/24 01:18:11;;;;;;;0.80;0.80;;;;;;;;;;6278840;28;20028;-67
2023/06/24 01:21:17;;;;;;;1.20;1.10;;;;;;;;;;6276849;28;20012;-67
2023/06/24 01:24:20;;;;;;;1.38;1.20;;;;;;;;;;6269512;28;20339;-66
2023/06/24 01:27:32;;;;;;;1.30;1.20;;;;;;;;;;6280446;28;20390;-65
2023/06/24 01:30:48;;;;;;;1.50;1.15;;;;;;;;;;6274747;28;20631;-64
2023/06/24 01:33:49;;;;;;;1.30;1.20;;;;;;;;;;6280971;28;20020;-66
2023/06/24 01:36:50;;;;;;;;;;;;;;;;;;6277374;28;20465;-65
2023/06/24 01:39:56;;;;;;;1.47;1.37;;;;;;;;;;6277152;28;19913;-67
2023/06/24 01:43:00;;;;;;;2.17;1.40;;;;;;;;;;6274975;28;20017;-67
2023/06/24 01:46:02;;;;;;;1.83;1.60;;;;;;;;;;6274668;28;20079;-64
2023/06/24 01:49:04;;;;;;;1.73;1.63;;;;;;;;;;6277268;28;20028;-65
2023/06/24 01:52:05;;;;;;;1.85;1.75;;;;;;;;;;6276706;28;20104;-69
2023/06/24 01:55:06;;;;;;;1.42;1.30;;;;;;;;;;6275454;28;20043;-66
2023/06/24 01:58:08;;;;;;;1.50;1.40;;;;;;;;;;6275792;28;20508;-66
2023/06/24 02:01:08;;;;;;;1.70;1.60;;;;;;;;;;6274655;28;20393;-66
2023/06/24 02:04:10;;;;;;;1.27;1.17;;;;;;;;;;6270953;28;20017;-66
2023/06/24 02:07:11;;;;;;;1.58;1.45;;;;;;;;;;6270632;28;20055;-67
2023/06/24 02:10:12;;;;;;;2.30;1.70;;;;;;;;;;6276089;28;20032;-66
2023/06/24 02:13:12;;;;;;;1.92;1.40;;;;;;;;;;6278115;28;20016;-66
2023/06/24 02:16:13;;;;;;;1.20;1.10;;;;;;;;;;6273744;28;20497;-66
2023/06/24 02:19:17;;;;;;;1.83;1.38;;;;;;;;;;6278289;28;20144;-65
2023/06/24 02:22:18;;;;;;;2.30;1.30;;;;;;;;;;6277863;28;20023;-64
2023/06/24 02:25:19;;;;;;;1.77;1.40;;;;;;;;;;6275048;28;20569;-65
2023/06/24 02:28:19;;;;;;;;;;;;;;;;;;6276091;28;22050;-65
2023/06/24 02:31:19;;;;;;;1.33;1.23;;;;;;;;;;6277864;28;19986;-65
2023/06/24 02:34:20;;;;;;;2.13;1.48;;;;;;;;;;6268196;28;20021;-65
2023/06/24 02:37:20;;;;;;;1.63;1.52;;;;;;;;;;6272831;28;20354;-65
2023/06/24 02:40:21;;;;;;;1.65;1.55;;;;;;;;;;6273501;28;20032;-66
2023/06/24 02:43:21;;;;;;;2.00;1.90;;;;;;;;;;6275572;28;20044;-65
2023/06/24 02:46:21;;;;;;;;;;;;;;;;;;6284290;28;20401;-67
2023/06/24 02:49:22;;;;;;;1.60;1.50;;;;;;;;;;6281407;28;19980;-66
2023/06/24 02:52:22;;;;;;;1.95;1.52;;;;;;;;;;6279112;28;20078;-64
2023/06/24 02:55:23;;;;;;;1.60;1.50;;;;;;;;;;6277020;28;20063;-65
2023/06/24 02:58:24;;;;;;;2.28;1.40;;;;;;;;;;6284376;28;20290;-64
2023/06/24 03:01:25;;;;;;;1.60;1.50;;;;;;;;;;6282935;28;20222;-66
2023/06/24 03:04:26;;;;;;;1.73;1.40;;;;;;;;;;6280064;28;20020;-67
2023/06/24 03:07:26;;;;;;;1.50;1.40;;;;;;;;;;6281996;28;20066;-68
2023/06/24 03:10:27;;;;;;;1.50;1.40;;;;;;;;;;6277716;28;20432;-66
2023/06/24 03:13:27;;;;;;;1.50;1.30;;;;;;;;;;6277217;28;20077;-65
2023/06/24 03:16:28;;;;;;;1.70;1.40;;;;;;;;;;6280814;28;20032;-64
2023/06/24 03:19:28;;;;;;;;;;;;;;;;;;6280531;28;20466;-66
2023/06/24 03:22:28;;;;;;;1.53;1.43;;;;;;;;;;6281918;28;19908;-64
2023/06/24 03:25:29;;;;;;;1.63;1.50;;;;;;;;;;6280593;28;20286;-65
2023/06/24 03:28:32;;;;;;;1.30;1.20;;;;;;;;;;6276307;28;20081;-63
2023/06/24 03:31:32;;;;;;;1.50;1.40;;;;;;;;;;6276971;28;20032;-64
2023/06/24 03:34:33;;;;;;;1.48;1.38;;;;;;;;;;6277470;28;20433;-63
2023/06/24 03:37:33;;;;;;;1.20;1.20;;;;;;;;;;6278194;28;20028;-64
2023/06/24 03:40:33;;;;;;;;;;;;;;;;;;6279553;28;20025;-64
2023/06/24 03:43:33;;;;;;;2.40;2.20;;;;;;;;;;6278800;28;19913;-64
2023/06/24 03:46:34;;;;;;;2.10;1.90;;;;;;;;;;6275509;28;20058;-64
2023/06/24 03:49:34;;;;;;;1.25;1.15;;;;;;;;;;6278334;28;20024;-66
2023/06/24 03:52:34;;;;;;;1.20;1.10;;;;;;;;;;6279450;28;20035;-63
2023/06/24 03:55:35;;;;;;;1.35;1.25;;;;;;;;;;6276150;28;20020;-63
2023/06/24 03:58:35;;;;;;;2.03;1.70;;;;;;;;;;6280244;28;20032;-64
2023/06/24 04:01:36;;;;;;;1.30;1.20;;;;;;;;;;6283410;28;20028;-63
2023/06/24 04:04:36;;;;;;;0.80;0.80;;;;;;;;;;6276808;28;20278;-64
2023/06/24 04:07:36;;;;;;;2.00;0.90;;;;;;;;;;6281753;28;20024;-64
2023/06/24 04:10:37;;;;;;;0.70;0.70;;;;;;;;;;6275981;28;20082;-64
2023/06/24 04:13:37;;;;;;;0.70;0.63;;;;;;;;;;6279530;28;20039;-65
2023/06/24 04:16:37;;;;;;;1.00;0.90;;;;;;;;;;6279989;28;20275;-63
2023/06/24 04:19:39;;;;;;;0.77;0.73;;;;;;;;;;6285398;28;20023;-63
2023/06/24 04:22:39;;;;;;;1.17;0.70;;;;;;;;;;6276789;28;20037;-65
2023/06/24 04:25:40;;;;;;;1.35;1.13;;;;;;;;;;6278988;28;20054;-64
2023/06/24 04:28:40;;;;;;;0.93;0.93;;;;;;;;;;6279229;28;20039;-62
2023/06/24 04:31:41;;;;;;;1.30;0.70;;;;;;;;;;6275879;28;20028;-63
2023/06/24 04:34:41;;;;;;;0.57;0.57;;;;;;;;;;6273742;28;20025;-62
2023/06/24 04:37:41;;;;;;;0.63;0.60;;;;;;;;;;6273515;28;20029;-63
2023/06/24 04:40:42;;;;;;;0.60;0.60;;;;;;;;;;6278566;28;20138;-61
2023/06/24 04:43:42;;;;;;;0.50;0.50;;;;;;;;;;6277379;28;20029;-62
2023/06/24 04:46:42;;;;;;;1.00;0.87;;;;;;;;;;6279027;28;20809;-63
2023/06/24 04:49:43;;;;;;;0.60;0.60;;;;;;;;;;6281791;28;20694;-65
2023/06/24 04:52:44;;;;;;;0.70;0.70;;;;;;;;;;6281361;28;20112;-64
2023/06/24 04:55:45;;;;;;;0.63;0.63;;;;;;;;;;6280687;28;20035;-65
2023/06/24 04:58:45;;;;;;;0.50;0.50;;;;;;;;;;6273478;28;21479;-65
2023/06/24 05:01:45;;;;;;;0.50;0.50;;;;;;;;;;6278766;28;20023;-66
2023/06/24 05:04:46;;;;;;;0.50;0.43;;;;;;;;;;6276580;28;20111;-66
2023/06/24 05:07:46;;;;;;;0.60;0.60;;;;;;;;;;6274464;28;20103;-66
2023/06/24 05:10:46;;;;;;;0.75;0.50;;;;;;;;;;6279178;28;20043;-66
2023/06/24 05:13:47;;;;;;;0.77;0.77;;;;;;;;;;6278107;28;20055;-65
2023/06/24 05:16:47;;;;;;;0.73;0.60;;;;;;;;;;6268959;28;20063;-65
2023/06/24 05:19:47;;;;;;;0.85;0.40;;;;;;;;;;6278861;28;20138;-65
2023/06/24 05:22:48;;;;;;;0.40;0.40;;;;;;;;;;6280843;28;20031;-66
2023/06/24 05:25:48;;;;;;;0.45;0.45;;;;;;;;;;6272174;28;20637;-65
2023/06/24 05:28:48;;;;;;;0.40;0.40;;;;;;;;;;6272687;28;20508;-66
2023/06/24 05:31:49;;;;;;;;;;;;;;;;;;6278378;28;20474;-65
2023/06/24 05:34:49;;;;;;;0.53;0.37;;;;;;;;;;6272570;28;20128;-65
2023/06/24 05:37:49;;;;;;;0.30;0.30;;;;;;;;;;6267783;28;20033;-65
2023/06/24 05:40:49;;;;;;;;;;;;;;;;;;6278092;28;20039;-66
2023/06/24 05:44:00;;;;;;;0.57;0.57;;;;;;;;;;6273529;28;19908;-64
2023/06/24 05:47:00;;;;;;;0.63;0.60;;;;;;;;;;6277258;28;20163;-68
2023/06/24 05:50:01;;;;;;;0.40;0.40;;;;;;;;;;6275381;28;21979;-62
2023/06/24 05:53:01;;;;;;;0.65;0.50;;;;;;;;;;6275148;28;20396;-65
2023/06/24 05:56:01;;;;;;;0.40;0.40;;;;;;;;;;6274186;28;20064;-65
2023/06/24 05:59:02;;;;;;;0.50;0.30;;;;;;;;;;6275589;28;20616;-63
2023/06/24 06:02:02;;;;;;;0.30;0.30;;;;;;;;;;6276141;28;20396;-64
2023/06/24 06:05:03;;;;;;;0.60;0.60;;;;;;;;;;6277514;28;20362;-62
2023/06/24 06:08:03;;;;;;;0.93;0.93;;;;;;;;;;6273908;28;20247;-65
2023/06/24 06:11:03;;;;;;;1.63;0.80;;;;;;;;;;6277322;28;20032;-65
2023/06/24 06:14:04;;;;;;;1.08;0.70;;;;;;;;;;6280018;28;20056;-64
2023/06/24 06:17:04;;;;;;;0.82;0.60;;;;;;;;;;6275705;28;20020;-65
2023/06/24 06:20:05;;;;;;;0.40;0.40;;;;;;;;;;6279739;28;20024;-65
2023/06/24 06:23:06;;;;;;;0.63;0.50;;;;;;;;;;6278831;28;20032;-65
2023/06/24 06:26:06;;;;;;;;;;;;;;;;;;6279435;28;20525;-64
2023/06/24 06:29:07;;;;;;;0.30;0.30;;;;;;;;;;6284718;28;19912;-64
2023/06/24 06:32:07;;;;;;;0.20;0.20;;;;;;;;;;6279086;28;20107;-65
2023/06/24 06:35:08;;;;;;;1.88;0.47;;;;;;;;;;6290322;28;20147;-64
2023/06/24 06:38:08;;;;;;;0.32;0.32;;;;;;;;;;6288832;28;20091;-65
2023/06/24 06:41:08;;;;;;;0.87;0.57;;;;;;;;;;6290209;28;20021;-64
2023/06/24 06:44:09;;;;;;;0.82;0.82;;;;;;;;;;6278384;28;20024;-64
2023/06/24 06:47:10;;;;;;;1.23;1.00;;;;;;;;;;6281937;28;20030;-63
2023/06/24 06:50:10;;;;;;;0.82;0.80;;;;;;;;;;6283087;28;20278;-64
2023/06/24 06:53:12;;;;;;;0.52;0.50;;;;;;;;;;6274186;28;20052;-64
2023/06/24 06:56:25;;;;;;;0.63;0.60;;;;;;;;;;6275132;28;20114;-64
2023/06/24 06:59:25;;;;;;;1.35;1.10;;;;;;;;;;6284068;28;20024;-66
2023/06/24 07:02:25;;;;;;;1.07;0.97;;;;;;;;;;6282665;28;20021;-63
2023/06/24 07:05:25;;;;;;;1.10;1.00;;;;;;;;;;6280171;28;20074;-64
2023/06/24 07:08:26;;;;;;;1.20;0.80;;;;;;;;;;6292515;28;20027;-63
2023/06/24 07:11:26;;;;;;;1.10;0.60;;;;;;;;;;6285808;28;20036;-63
2023/06/24 07:14:26;;;;;;;0.90;0.70;;;;;;;;;;6289881;28;20276;-63
2023/06/24 07:17:26;;;;;;;0.63;0.60;;;;;;;;;;6290861;28;20025;-64
2023/06/24 07:20:27;;;;;;;0.70;0.60;;;;;;;;;;6276538;28;20462;-64
2023/06/24 07:23:28;;;;;;;0.43;0.43;;;;;;;;;;6280867;28;20032;-66
2023/06/24 07:26:29;;;;;;;0.75;0.75;;;;;;;;;;6295216;28;20031;-65
2023/06/24 07:29:30;;;;;;;1.10;1.00;;;;;;;;;;6294636;28;20080;-66
2023/06/24 07:32:30;;;;;;;1.93;1.37;;;;;;;;;;6278811;28;20389;-64
2023/06/24 07:35:32;;;;;;;1.40;1.27;;;;;;;;;;6275948;28;20024;-66
2023/06/24 07:38:32;;;;;;;1.20;1.10;;;;;;;;;;6283668;28;20050;-66
2023/06/24 07:41:33;;;;;;;1.50;1.40;;;;;;;;;;6284742;28;20020;-69
2023/06/24 07:44:33;;;;;;;1.70;1.23;;;;;;;;;;6285761;28;20048;-69
2023/06/24 07:47:34;;;;;;;1.33;1.23;;;;;;;;;;6282531;28;20063;-69
2023/06/24 07:50:35;;;;;;;1.30;1.20;;;;;;;;;;6281541;28;20638;-69
2023/06/24 07:53:36;;;;;;;3.15;1.80;;;;;;;;;;6279058;28;22603;-68
2023/06/24 07:56:36;;;;;;;1.70;1.60;;;;;;;;;;6275113;28;20020;-70
2023/06/24 07:59:36;;;;;;;2.13;1.70;;;;;;;;;;6279727;28;20484;-70
2023/06/24 08:02:37;;;;;;;2.23;1.83;;;;;;;;;;6279761;28;20275;-71
2023/06/24 08:05:38;;;;;;;1.98;1.60;;;;;;;;;;6283897;28;20435;-70
2023/06/24 08:08:39;;;;;;;1.48;1.30;;;;;;;;;;6282965;28;20103;-72
2023/06/24 08:11:39;;;;;;;2.33;1.42;;;;;;;;;;6284441;28;20032;-70
2023/06/24 08:14:39;;;;;;;;;;;;;;;;;;6280822;28;20354;-73
2023/06/24 08:17:40;;;;;;;2.92;2.47;;;;;;;;;;6283742;28;19920;-72
2023/06/24 08:20:40;;;;;;;;;;;;;;;;;;6281989;28;20166;-74
2023/06/24 08:23:40;;;;;;;1.70;1.60;;;;;;;;;;6282900;28;20647;-72
2023/06/24 08:26:41;;;;;;;;;;;;;;;;;;6283340;28;20311;-70
2023/06/24 08:29:41;;;;;;;1.50;1.40;;;;;;;;;;6283252;28;19928;-72
2023/06/24 08:32:41;;;;;;;;;;;;;;;;;;6280038;28;20223;-70
2023/06/24 08:35:42;;;;;;;1.60;1.50;;;;;;;;;;6279730;28;20013;-69
2023/06/24 08:38:42;;;;;;;;;;;;;;;;;;6276319;28;20016;-70
2023/06/24 08:41:43;;;;;;;2.10;1.47;;;;;;;;;;6281285;28;20013;-70
2023/06/24 08:44:43;;;;;;;;;;;;;;;;;;6274433;28;20478;-70
2023/06/24 08:47:43;;;;;;;1.85;1.75;;;;;;;;;;6272903;28;19912;-70
2023/06/24 08:50:43;;;;;;;;;;;;;;;;;;6288579;28;20028;-71
2023/06/24 08:53:44;;;;;;;2.80;1.50;;;;;;;;;;6273844;28;20626;-72
2023/06/24 08:56:44;;;;;;;;;;;;;;;;;;6275377;28;20016;-72
2023/06/24 08:59:45;;;;;;;1.98;1.88;;;;;;;;;;6274574;28;19912;-72
2023/06/24 09:02:46;;;;;;;1.70;1.40;;;;;;;;;;6276521;28;20587;-70
2023/06/24 09:05:48;;;;;;;;;;;;;;;;;;6276721;28;20115;-70
2023/06/24 09:08:48;;;;;;;;;;;;;;;;;;6279038;28;19924;-70
2023/06/24 09:11:56;;;;;;;1.10;0.97;;;;;;;;;;6273335;28;20022;-70
2023/06/24 09:14:56;;;;;;;1.40;1.27;;;;;;;;;;6266455;28;20028;-69
2023/06/24 09:17:57;;;;;;;;;;;;;;;;;;6271470;28;20021;-68
2023/06/24 09:20:57;;;;;;;1.10;1.00;;;;;;;;;;6276636;28;19934;-66
2023/06/24 09:23:57;;;;;;;;;;;;;;;;;;6274352;28;20016;-68
2023/06/24 09:27:00;;;;;;;1.20;1.10;;;;;;;;;;6268563;28;19916;-67
2023/06/24 09:30:00;;;;;;;1.63;1.52;;;;;;;;;;6271679;28;20304;-68
2023/06/24 09:33:01;;;;;;;2.35;1.65;;;;;;;;;;6274747;28;20033;-68
2023/06/24 09:36:01;;;;;;;;;;;;;;;;;;6274414;28;20032;-69
2023/06/24 09:39:11;;;;;;;1.60;1.50;;;;;;;;;;6271257;28;19925;-69
2023/06/24 09:42:12;;;;;;;2.07;1.60;;;;;;;;;;5921977;28;10000493;-67
2023/06/24 09:45:13;;;;;;;2.30;2.00;;;;;;;;;;6274606;28;20021;-68
2023/06/24 09:48:13;;;;;;;2.40;2.20;;;;;;;;;;6274553;28;20473;-68
2023/06/24 09:51:14;;;;;;;;;;;;;;;;;;6274124;28;20107;-70
2023/06/24 09:54:15;;;;;;;1.90;1.80;;;;;;;;;;6276436;28;19916;-67
2023/06/24 09:57:15;;;;;;;;;;;;;;;;;;6272243;28;20074;-67
2023/06/24 10:00:17;;;;;;;1.70;1.60;;;;;;;;;;6266770;28;20372;-66
2023/06/24 10:03:18;;;;;;;2.65;1.77;;;;;;;;;;6271252;28;20024;-68
2023/06/24 10:06:18;;;;;;;2.30;2.10;;;;;;;;;;6271948;28;20024;-65
2023/06/24 10:09:19;;;;;;;;;;;;;;;;;;6277917;28;20522;-68
2023/06/24 10:12:19;;;;;;;3.30;2.15;;;;;;;;;;6277177;28;20328;-66
2023/06/24 10:15:19;;;;;;;;;;;;;;;;;;6275278;28;20036;-72
2023/06/24 10:18:34;;;;;;;2.57;2.37;;;;;;;;;;6273472;28;19925;-68
2023/06/24 10:21:53;;;;;;;3.20;2.90;;;;;;;;;;6275248;28;20458;-68
2023/06/24 10:24:54;;;;;;;3.30;3.00;;;;;;;;;;6268857;28;20020;-68
2023/06/24 10:27:54;;;;;;;3.40;3.10;;;;;;;;;;6274389;28;20020;-68
2023/06/24 10:30:55;;;;;;;;;;;;;;;;;;6273553;28;20044;-68
2023/06/24 10:33:58;;;;;;;3.17;2.97;;;;;;;;;;6272278;28;19912;-68
2023/06/24 10:37:07;;;;;;;2.97;2.78;;;;;;;;;;6271423;28;20118;-68
2023/06/24 10:40:09;;;;;;;3.33;3.03;;;;;;;;;;6273565;28;20141;-66
2023/06/24 10:43:29;;;;;;;3.30;3.10;;;;;;;;;;6276316;28;20408;-66
2023/06/24 10:46:32;;;;;;;3.47;3.17;;;;;;;;;;6272547;28;20350;-68
2023/06/24 10:49:33;;;;;;;3.17;2.88;;;;;;;;;;6270780;28;21418;-67
2023/06/24 10:52:33;;;;;;;;;;;;;;;;;;6269618;28;20020;-66
2023/06/24 10:55:35;;;;;;;3.00;2.70;;;;;;;;;;6273828;28;19919;-70
2023/06/24 10:58:36;;;;;;;2.58;2.38;;;;;;;;;;6276231;28;20024;-69
2023/06/24 11:01:36;;;;;;;;;;;;;;;;;;6274075;28;20131;-68
2023/06/24 11:04:49;;;;;;;2.58;2.38;;;;;;;;;;6279540;28;19926;-69
2023/06/24 11:07:50;;;;;;;2.70;2.50;;;;;;;;;;6271889;28;20055;-69
2023/06/24 11:10:50;;;;;;;;;;;;;;;;;;6279386;28;20161;-68
2023/06/24 11:13:51;;;;;;;2.50;2.30;;;;;;;;;;6277222;28;19996;-71
2023/06/24 11:16:51;;;;;;;;;;;;;;;;;;6274229;28;20047;-70
2023/06/24 11:19:52;;;;;;;3.50;3.20;;;;;;;;;;6277702;28;19917;-72
2023/06/24 11:22:53;;;;;;;4.15;3.55;;;;;;;;;;6272870;28;20039;-69
2023/06/24 11:25:55;;;;;;;;;;;;;;;;;;6277608;28;20502;-70
2023/06/24 11:28:55;;;;;;;3.10;2.80;;;;;;;;;;6277366;28;20686;-68
2023/06/24 11:31:56;;;;;;;;;;;;;;;;;;6280788;28;20086;-69
2023/06/24 11:34:56;;;;;;;3.03;2.77;;;;;;;;;;6276899;28;19958;-70
2023/06/24 11:37:57;;;;;;;;;;;;;;;;;;6275216;28;20017;-68
2023/06/24 11:40:58;;;;;;;4.47;2.92;;;;;;;;;;6278113;28;19927;-68
2023/06/24 11:43:58;;;;;;;;;;;;;;;;;;6276318;28;20017;-68
2023/06/24 11:47:05;;;;;;;2.97;2.70;;;;;;;;;;6276391;28;19917;-68
2023/06/24 11:50:07;;;;;;;3.38;3.08;;;;;;;;;;6277449;28;20031;-68
2023/06/24 11:53:07;;;;;;;4.25;3.80;;;;;;;;;;6276134;28;20050;-68
2023/06/24 11:56:07;;;;;;;;;;;;;;;;;;6278918;28;20087;-67
2023/06/24 11:59:18;;;;;;;3.70;2.97;;;;;;;;;;6277854;28;19966;-66
2023/06/24 12:02:19;;;;;;;3.78;3.22;;;;;;;;;;6276483;28;20028;-66
2023/06/24 12:05:25;;;;;;;;;;;;;;;;;;6273699;28;20071;-69
2023/06/24 12:08:25;;;;;;;3.60;3.30;;;;;;;;;;6276998;28;20369;-71
2023/06/24 12:11:26;;;;;;;;;;;;;;;;;;6275280;28;20040;-66
2023/06/24 12:14:26;;;;;;;3.97;3.47;;;;;;;;;;6281357;28;20032;-66
2023/06/24 12:17:26;;;;;;;;;;;;;;;;;;6286137;28;20109;-66
2023/06/24 12:20:26;;;;;;;4.15;3.28;;;;;;;;;;6270637;28;19913;-67
2023/06/24 12:23:27;;;;;;;;;;;;;;;;;;6274647;28;20066;-65
2023/06/24 12:26:27;;;;;;;3.83;3.53;;;;;;;;;;6274224;28;19947;-68
2023/06/24 12:29:27;;;;;;;;;;;;;;;;;;6269889;28;20056;-70
2023/06/24 12:32:28;;;;;;;3.67;3.37;;;;;;;;;;6273641;28;20297;-67
2023/06/24 12:35:28;;;;;;;3.42;3.10;;;;;;;;;;6280215;28;20470;-67
2023/06/24 12:38:28;;;;;;;4.68;4.28;;;;;;;;;;6286302;28;20028;-67
2023/06/24 12:41:29;;;;;;;4.85;3.88;;;;;;;;;;6274947;28;20036;-71
2023/06/24 12:44:29;;;;;;;4.70;4.30;;;;;;;;;;6270067;28;20433;-71
2023/06/24 12:47:29;;;;;;;;;;;;;;;;;;6275991;28;20037;-68
2023/06/24 12:50:33;;;;;;;4.13;3.70;;;;;;;;;;6271681;28;19916;-68
2023/06/24 12:53:33;;;;;;;4.68;4.15;;;;;;;;;;6269739;28;20024;-70
2023/06/24 12:56:33;;;;;;;;;;;;;;;;;;6272813;28;20055;-67
2023/06/24 12:59:34;;;;;;;3.78;3.40;;;;;;;;;;6276580;28;19919;-67
2023/06/24 13:02:34;;;;;;;;;;;;;;;;;;6267306;28;20012;-68
2023/06/24 13:05:34;;;;;;;3.87;3.37;;;;;;;;;;6270253;28;20871;-69
2023/06/24 13:08:34;;;;;;;4.30;3.97;;;;;;;;;;6270544;28;20025;-69
2023/06/24 13:11:35;;;;;;;;;;;;;;;;;;6276134;28;20294;-69
2023/06/24 13:14:35;;;;;;;4.27;3.87;;;;;;;;;;6279935;28;19912;-68
2023/06/24 13:17:36;;;;;;;5.00;4.40;;;;;;;;;;6276907;28;20387;-70
2023/06/24 13:20:36;;;;;;;5.32;3.97;;;;;;;;;;6277246;28;20028;-72
2023/06/24 13:23:38;;;;;;;;;;;;;;;;;;6278728;28;20015;-70
2023/06/24 13:26:39;;;;;;;4.72;4.25;;;;;;;;;;6282032;28;19908;-70
2023/06/24 13:29:39;;;;;;;;;;;;;;;;;;6282624;28;20123;-69
2023/06/24 13:32:39;;;;;;;3.63;3.33;;;;;;;;;;6286654;28;19915;-70
2023/06/24 13:35:40;;;;;;;;;;;;;;;;;;6284717;28;20120;-70
2023/06/24 13:38:40;;;;;;;3.73;3.43;;;;;;;;;;6279207;28;20308;-71
2023/06/24 13:41:40;;;;;;;;;;;;;;;;;;6283301;28;20314;-70
2023/06/24 13:44:41;;;;;;;4.32;3.72;;;;;;;;;;6276536;28;20011;-70
2023/06/24 13:47:41;;;;;;;4.65;4.18;;;;;;;;;;6287272;28;20021;-72
2023/06/24 13:50:41;;;;;;;5.15;4.68;;;;;;;;;;6270992;28;20455;-72
2023/06/24 13:53:42;;;;;;;;;;;;;;;;;;6272733;28;20786;-70
2023/06/24 13:56:42;;;;;;;4.68;4.28;;;;;;;;;;6280150;28;19959;-71
2023/06/24 13:59:42;;;;;;;7.55;4.70;;;;;;;;;;6279887;28;20021;-71
2023/06/24 14:02:43;;;;;;;5.90;4.43;;;;;;;;;;6276299;28;20384;-72
2023/06/24 14:05:43;;;;;;;5.25;4.57;;;;;;;;;;6278161;28;20035;-72
2023/06/24 14:08:43;;;;;;;5.38;4.80;;;;;;;;;;6283171;28;20116;-71
2023/06/24 14:11:44;;;;;;;5.10;4.60;;;;;;;;;;6281693;28;20032;-71
2023/06/24 14:14:44;;;;;;;4.78;4.38;;;;;;;;;;6282546;28;20044;-70
2023/06/24 14:17:44;;;;;;;4.43;4.07;;;;;;;;;;6279911;28;20485;-69
2023/06/24 14:20:45;;;;;;;4.78;4.15;;;;;;;;;;6275927;28;20013;-69
2023/06/24 14:23:45;;;;;;;5.20;3.95;;;;;;;;;;6279339;28;20374;-69
2023/06/24 14:26:48;;;;;;;4.80;3.75;;;;;;;;;;6267937;28;20024;-72
2023/06/24 14:29:49;;;;;;;4.95;4.55;;;;;;;;;;6277109;28;20806;-70
2023/06/24 14:32:49;;;;;;;5.22;4.50;;;;;;;;;;6280582;28;20032;-71
2023/06/24 14:35:51;;;;;;;5.00;4.50;;;;;;;;;;6288181;28;20040;-70
2023/06/24 14:38:51;;;;;;;4.63;4.22;;;;;;;;;;6283933;28;20032;-69
2023/06/24 14:41:51;;;;;;;7.70;4.57;;;;;;;;;;6276150;28;20081;-71
2023/06/24 14:44:51;;;;;;;4.97;4.57;;;;;;;;;;6287483;28;20029;-70
2023/06/24 14:47:52;;;;;;;4.70;4.30;;;;;;;;;;6281740;28;20052;-70
2023/06/24 14:50:52;;;;;;;6.75;4.75;;;;;;;;;;6276842;28;20028;-68
2023/06/24 14:53:53;;;;;;;6.43;4.73;;;;;;;;;;6280023;28;20027;-70
2023/06/24 14:56:53;;;;;;;4.38;3.97;;;;;;;;;;6283060;28;20637;-69
2023/06/24 14:59:53;;;;;;;3.80;3.55;;;;;;;;;;6281153;28;20103;-70
2023/06/24 15:02:53;;;;;;;4.70;4.13;;;;;;;;;;6275832;28;20021;-70
2023/06/24 15:05:57;;;;;;;3.95;3.65;;;;;;;;;;6284487;28;20346;-70
2023/06/24 15:08:58;;;;;;;3.83;3.53;;;;;;;;;;6282062;28;20092;-70
2023/06/24 15:11:58;;;;;;;3.75;3.45;;;;;;;;;;6285651;28;20102;-68
2023/06/24 15:14:59;;;;;;;3.35;3.15;;;;;;;;;;6285792;28;20453;-68
2023/06/24 15:18:00;;;;;;;3.92;3.63;;;;;;;;;;6274771;28;20039;-70
2023/06/24 15:21:00;;;;;;;3.53;3.22;;;;;;;;;;6291410;28;20027;-68
2023/06/24 15:24:00;;;;;;;3.85;3.40;;;;;;;;;;6278046;28;20017;-67
2023/06/24 15:27:01;;;;;;;3.88;3.58;;;;;;;;;;6279330;28;20070;-71
2023/06/24 15:30:01;;;;;;;3.92;3.53;;;;;;;;;;6283417;28;20089;-71
2023/06/24 15:33:02;;;;;;;4.13;3.72;;;;;;;;;;6282732;28;20501;-69
2023/06/24 15:36:02;;;;;;;4.38;3.97;;;;;;;;;;6285458;28;20101;-69
2023/06/24 15:39:03;;;;;;;3.90;3.60;;;;;;;;;;6283792;28;20029;-70
2023/06/24 15:42:03;;;;;;;3.95;3.65;;;;;;;;;;6292130;28;20027;-71
2023/06/24 15:45:04;;;;;;;4.95;3.63;;;;;;;;;;6279937;28;20044;-70
2023/06/24 15:48:05;;;;;;;4.57;3.47;;;;;;;;;;6279678;28;20035;-70
2023/06/24 15:51:05;;;;;;;4.13;3.83;;;;;;;;;;6279585;28;20032;-70
2023/06/24 15:54:05;;;;;;;3.95;3.65;;;;;;;;;;6276670;28;20028;-69
2023/06/24 15:57:05;;;;;;;5.80;3.80;;;;;;;;;;6286015;28;20022;-71
2023/06/24 16:00:06;;;;;;;4.68;3.80;;;;;;;;;;6287233;28;20684;-71
2023/06/24 16:03:06;;;;;;;4.30;3.92;;;;;;;;;;6284735;28;20017;-71
2023/06/24 16:06:07;;;;;;;5.45;4.32;;;;;;;;;;6276054;28;20020;-71
2023/06/24 16:09:07;;;;;;;5.35;4.38;;;;;;;;;;6276537;28;20436;-69
2023/06/24 16:12:08;;;;;;;5.05;4.55;;;;;;;;;;6276271;28;20020;-69
2023/06/24 16:15:08;;;;;;;4.40;4.00;;;;;;;;;;6276199;28;20370;-69
2023/06/24 16:18:09;;;;;;;4.35;3.97;;;;;;;;;;6283683;28;20612;-71
2023/06/24 16:21:09;;;;;;;4.25;3.88;;;;;;;;;;6285709;28;20012;-70
2023/06/24 16:24:11;;;;;;;4.35;3.92;;;;;;;;;;6285804;28;20108;-72
2023/06/24 16:27:11;;;;;;;4.75;3.63;;;;;;;;;;6276570;28;20047;-71
2023/06/24 16:30:12;;;;;;;4.20;3.77;;;;;;;;;;6283518;28;20024;-71
2023/06/24 16:33:12;;;;;;;4.05;3.70;;;;;;;;;;6276280;28;20423;-69
2023/06/24 16:36:12;;;;;;;4.28;3.88;;;;;;;;;;6276849;28;20021;-70
2023/06/24 16:39:12;;;;;;;5.97;3.75;;;;;;;;;;6267872;28;22689;-71
2023/06/24 16:42:13;;;;;;;4.30;3.90;;;;;;;;;;6274238;28;20222;-72
2023/06/24 16:45:13;;;;;;;4.03;3.63;;;;;;;;;;6278379;28;20070;-71
2023/06/24 16:48:13;;;;;;;4.07;3.77;;;;;;;;;;6272107;28;20028;-72
2023/06/24 16:51:17;;;;;;;4.32;3.65;;;;;;;;;;6273059;28;20287;-72
2023/06/24 16:54:17;;;;;;;4.15;3.85;;;;;;;;;;6277630;28;20043;-70
2023/06/24 16:57:18;;;;;;;4.47;4.07;;;;;;;;;;6271229;28;20079;-69
2023/06/24 17:00:18;;;;;;;3.97;3.58;;;;;;;;;;6275303;28;20637;-71
2023/06/24 17:03:18;;;;;;;4.40;4.00;;;;;;;;;;6275184;28;20517;-70
2023/06/24 17:06:19;;;;;;;4.65;4.25;;;;;;;;;;6273182;28;20036;-69
2023/06/24 17:09:19;;;;;;;4.10;3.58;;;;;;;;;;6268638;28;20445;-70
2023/06/24 17:12:19;;;;;;;4.40;3.83;;;;;;;;;;6276497;28;20028;-69
2023/06/24 17:15:23;;;;;;;3.97;3.63;;;;;;;;;;6280904;28;20485;-70
2023/06/24 17:18:32;;;;;;;3.97;3.67;;;;;;;;;;6272729;28;20660;-68
2023/06/24 17:21:32;;;;;;;4.10;3.70;;;;;;;;;;6273558;28;20103;-71
2023/06/24 17:24:33;;;;;;;4.55;4.03;;;;;;;;;;6274227;28;20012;-70
2023/06/24 17:27:33;;;;;;;4.38;3.97;;;;;;;;;;6274911;28;20051;-68
2023/06/24 17:30:33;;;;;;;4.13;3.72;;;;;;;;;;6274546;28;20063;-68
2023/06/24 17:33:34;;;;;;;4.18;3.63;;;;;;;;;;6271761;28;20098;-69
2023/06/24 17:36:34;;;;;;;3.80;3.50;;;;;;;;;;6278376;28;20033;-68
2023/06/24 17:39:34;;;;;;;4.88;3.67;;;;;;;;;;6274777;28;20593;-69
2023/06/24 17:42:35;;;;;;;3.65;3.25;;;;;;;;;;6278448;28;20035;-69
2023/06/24 17:45:35;;;;;;;4.05;3.45;;;;;;;;;;6287592;28;20066;-70
2023/06/24 17:48:35;;;;;;;4.07;3.67;;;;;;;;;;6280511;28;20066;-69
2023/06/24 17:51:38;;;;;;;3.67;3.37;;;;;;;;;;6277326;28;20024;-70
2023/06/24 17:54:38;;;;;;;3.88;3.58;;;;;;;;;;6280564;28;20283;-69
2023/06/24 17:57:39;;;;;;;;;;;;;;;;;;6294231;28;20085;-70
2023/06/24 18:00:42;;;;;;;3.20;2.90;;;;;;;;;;6290168;28;19974;-69
2023/06/24 18:03:45;;;;;;;5.22;3.15;;;;;;;;;;6283621;28;20021;-71
2023/06/24 18:06:45;;;;;;;3.45;3.15;;;;;;;;;;6277527;28;20330;-71
2023/06/24 18:09:45;;;;;;;;;;;;;;;;;;6290513;28;20024;-68
2023/06/24 18:12:46;;;;;;;3.60;3.30;;;;;;;;;;6290073;28;20007;-66
2023/06/24 18:15:46;;;;;;;;;;;;;;;;;;6280646;28;20318;-66
2023/06/24 18:18:46;;;;;;;3.13;2.83;;;;;;;;;;6274826;28;19931;-66
2023/06/24 18:21:46;;;;;;;3.10;2.90;;;;;;;;;;6290688;28;20025;-69
2023/06/24 18:24:47;;;;;;;;;;;;;;;;;;6280310;28;20357;-67
2023/06/24 18:27:47;;;;;;;3.07;2.87;;;;;;;;;;6274573;28;20372;-65